Time;durP1;ratioP1;P1;durP2;ratioP2;P2;SDS_P1;SDS_P2;PMS_P1;PMS_P2;Temp;Humidity;BMP_temperature;BMP_pressure;BME280_temperature;BME280_humidity;BME280_pressure;Samples;Min_cycle;Max_cycle;Signal;HPM_P1;HPM_P2
2022/08/29 00:01:07;;;;;;;7.32;2.53;;;17.20;99.90;;;;;;5076083;28;20045;-67
2022/08/29 00:03:34;;;;;;;7.57;2.65;;;17.20;99.90;;;;;;5076117;28;20037;-65
2022/08/29 00:06:00;;;;;;;11.98;2.95;;;17.20;99.90;;;;;;5075997;28;20036;-66
2022/08/29 00:08:26;;;;;;;4.85;2.67;;;17.10;99.90;;;;;;5075760;28;20428;-66
2022/08/29 00:10:52;;;;;;;6.75;3.03;;;17.10;99.90;;;;;;5074948;28;20041;-66
2022/08/29 00:13:18;;;;;;;7.10;3.65;;;17.10;99.90;;;;;;5076051;28;20044;-66
2022/08/29 00:15:44;;;;;;;4.95;2.42;;;17.10;99.90;;;;;;5075692;28;20036;-67
2022/08/29 00:18:09;;;;;;;8.13;2.90;;;17.00;99.90;;;;;;5075916;28;20501;-67
2022/08/29 00:20:35;;;;;;;5.95;2.50;;;17.10;99.90;;;;;;5075777;28;20589;-66
2022/08/29 00:23:03;;;;;;;4.50;2.60;;;17.00;99.90;;;;;;5075733;28;20036;-66
2022/08/29 00:25:30;;;;;;;7.37;3.30;;;17.10;99.90;;;;;;5075444;28;20072;-66
2022/08/29 00:27:56;;;;;;;7.68;3.13;;;17.10;99.90;;;;;;5075503;28;20036;-66
2022/08/29 00:30:22;;;;;;;8.23;3.65;;;17.10;99.90;;;;;;5075463;28;20041;-66
2022/08/29 00:32:48;;;;;;;9.18;3.40;;;17.10;99.90;;;;;;5075562;28;20032;-66
2022/08/29 00:35:18;;;;;;;6.07;2.58;;;17.10;99.90;;;;;;5075537;28;20067;-66
2022/08/29 00:37:44;;;;;;;9.23;3.30;;;17.10;99.90;;;;;;5075402;28;20098;-67
2022/08/29 00:40:15;;;;;;;8.88;2.88;;;17.10;99.90;;;;;;5075281;28;20098;-67
2022/08/29 00:42:41;;;;;;;6.90;2.95;;;17.20;99.90;;;;;;5075419;28;20040;-67
2022/08/29 00:45:08;;;;;;;10.98;3.15;;;17.10;99.90;;;;;;5073843;28;20051;-66
2022/08/29 00:47:39;;;;;;;8.52;3.83;;;17.10;99.90;;;;;;5075087;28;20071;-66
2022/08/29 00:50:07;;;;;;;7.65;2.70;;;17.20;99.90;;;;;;5075190;28;20032;-66
2022/08/29 00:52:33;;;;;;;10.98;3.15;;;17.20;99.90;;;;;;5074880;28;20119;-66
2022/08/29 00:55:02;;;;;;;8.32;3.15;;;17.20;99.90;;;;;;5074996;28;20510;-66
2022/08/29 00:57:30;;;;;;;7.85;2.97;;;17.20;99.90;;;;;;5073780;28;20445;-66
2022/08/29 00:59:57;;;;;;;10.48;2.50;;;17.20;99.90;;;;;;5073434;28;20048;-66
2022/08/29 01:02:22;;;;;;;12.00;3.25;;;17.20;99.90;;;;;;5075351;28;20032;-67
2022/08/29 01:04:48;;;;;;;4.90;2.47;;;17.20;99.90;;;;;;5074886;28;20039;-67
2022/08/29 01:07:15;;;;;;;9.85;2.85;;;17.20;99.90;;;;;;5074880;28;20055;-67
2022/08/29 01:09:45;;;;;;;8.20;2.38;;;17.20;99.90;;;;;;5074949;28;20095;-67
2022/08/29 01:12:14;;;;;;;9.13;2.75;;;17.20;99.90;;;;;;5074698;28;20044;-67
2022/08/29 01:14:54;;;;;;;8.38;3.15;;;17.20;99.90;;;;;;5074414;28;20067;-67
2022/08/29 01:17:24;;;;;;;8.32;2.53;;;17.20;99.90;;;;;;5074696;28;20040;-67
2022/08/29 01:19:58;;;;;;;8.52;2.85;;;17.20;99.90;;;;;;5074609;28;20040;-67
2022/08/29 01:22:50;;;;;;;8.82;2.25;;;17.30;99.90;;;;;;5072984;28;20044;-67
2022/08/29 01:25:20;;;;;;;6.28;2.75;;;17.30;99.90;;;;;;5074314;28;20094;-67
2022/08/29 01:27:53;;;;;;;5.68;2.00;;;17.30;99.90;;;;;;5074677;28;20083;-67
2022/08/29 01:30:19;;;;;;;7.55;2.30;;;17.30;99.90;;;;;;5074439;28;20045;-67
2022/08/29 01:32:45;;;;;;;5.38;2.20;;;17.30;99.90;;;;;;5074375;28;20090;-67
2022/08/29 01:35:11;;;;;;;4.72;2.00;;;17.30;99.90;;;;;;5074580;28;20047;-65
2022/08/29 01:37:40;;;;;;;6.88;2.33;;;17.30;99.90;;;;;;5073993;28;20367;-67
2022/08/29 01:40:06;;;;;;;5.57;2.10;;;17.40;99.90;;;;;;5074128;28;20072;-67
2022/08/29 01:42:32;;;;;;;7.38;2.22;;;17.30;99.90;;;;;;5074171;28;20045;-67
2022/08/29 01:44:59;;;;;;;7.75;2.10;;;17.40;99.90;;;;;;5074207;28;20043;-67
2022/08/29 01:47:28;;;;;;;7.22;2.30;;;17.40;99.90;;;;;;5074162;28;20033;-67
2022/08/29 01:49:54;;;;;;;4.15;1.95;;;17.40;99.90;;;;;;5074086;28;20386;-67
2022/08/29 01:52:21;;;;;;;5.00;1.88;;;17.40;99.90;;;;;;5073851;28;20060;-67
2022/08/29 01:54:46;;;;;;;6.97;1.88;;;17.40;99.90;;;;;;5074071;28;20045;-67
2022/08/29 01:57:13;;;;;;;10.15;2.42;;;17.40;99.90;;;;;;5073961;28;20036;-67
2022/08/29 01:59:40;;;;;;;9.25;2.45;;;17.30;99.90;;;;;;5074023;28;20094;-67
2022/08/29 02:02:15;;;;;;;6.57;2.10;;;17.40;99.90;;;;;;5073827;28;20581;-67
2022/08/29 02:04:41;;;;;;;6.65;2.00;;;17.30;99.90;;;;;;5073889;28;20041;-67
2022/08/29 02:07:06;;;;;;;10.43;2.67;;;17.40;99.90;;;;;;5073916;28;20043;-67
2022/08/29 02:09:32;;;;;;;6.72;1.90;;;17.30;99.90;;;;;;5073839;28;20040;-67
2022/08/29 02:12:01;;;;;;;4.85;1.73;;;17.30;99.90;;;;;;5072524;28;20052;-67
2022/08/29 02:14:26;;;;;;;;;;;17.30;99.90;;;;;;5074227;28;20049;-67
2022/08/29 02:16:52;;;;;;;6.47;2.05;;;17.30;99.90;;;;;;5073841;28;19916;-67
2022/08/29 02:19:18;;;;;;;9.25;2.38;;;17.30;99.90;;;;;;5073542;28;20036;-67
2022/08/29 02:21:44;;;;;;;10.60;2.03;;;17.30;99.90;;;;;;5073725;28;20048;-67
2022/08/29 02:24:09;;;;;;;5.80;1.90;;;17.40;99.90;;;;;;5073628;28;20049;-67
2022/08/29 02:26:35;;;;;;;6.10;1.90;;;17.30;99.90;;;;;;5073570;28;20036;-66
2022/08/29 02:29:01;;;;;;;10.25;2.47;;;17.40;99.90;;;;;;5073635;28;20040;-66
2022/08/29 02:31:27;;;;;;;11.50;2.17;;;17.40;99.90;;;;;;5073661;28;20041;-66
2022/08/29 02:33:53;;;;;;;6.32;2.17;;;17.30;99.90;;;;;;5076530;28;20112;-67
2022/08/29 02:36:20;;;;;;;12.38;3.65;;;17.30;99.90;;;;;;5077804;28;20037;-66
2022/08/29 02:38:46;;;;;;;10.02;2.58;;;17.20;99.90;;;;;;5077767;28;20391;-66
2022/08/29 02:41:12;;;;;;;7.97;2.20;;;17.20;99.90;;;;;;5077593;28;20072;-66
2022/08/29 02:43:38;;;;;;;11.50;2.22;;;17.20;99.90;;;;;;5077291;28;20041;-66
2022/08/29 02:46:04;;;;;;;13.15;2.70;;;17.10;99.90;;;;;;5077594;28;20032;-66
2022/08/29 02:48:30;;;;;;;7.93;2.67;;;17.10;99.90;;;;;;5077500;28;20119;-66
2022/08/29 02:50:57;;;;;;;9.23;2.40;;;17.20;99.90;;;;;;5077421;28;20166;-66
2022/08/29 02:53:25;;;;;;;7.00;2.10;;;17.10;99.90;;;;;;5077138;28;20503;-66
2022/08/29 02:55:52;;;;;;;9.98;2.83;;;17.10;99.90;;;;;;5077422;28;20048;-66
2022/08/29 02:58:19;;;;;;;8.93;2.13;;;17.10;99.90;;;;;;5077002;28;20040;-66
2022/08/29 03:00:45;;;;;;;11.45;2.40;;;17.10;99.90;;;;;;5077115;28;20036;-66
2022/08/29 03:03:11;;;;;;;10.50;2.70;;;17.10;99.90;;;;;;5077307;28;20029;-66
2022/08/29 03:05:38;;;;;;;10.88;2.30;;;17.10;99.90;;;;;;5076027;28;20537;-66
2022/08/29 03:08:10;;;;;;;9.02;2.15;;;17.10;99.90;;;;;;5077068;28;20036;-66
2022/08/29 03:10:36;;;;;;;4.85;2.20;;;17.10;99.90;;;;;;5077124;28;20557;-66
2022/08/29 03:13:03;;;;;;;6.55;2.50;;;17.10;99.90;;;;;;5076723;28;20036;-66
2022/08/29 03:15:29;;;;;;;9.43;2.10;;;17.10;99.90;;;;;;5077042;28;20047;-66
2022/08/29 03:17:55;;;;;;;11.30;2.90;;;17.10;99.90;;;;;;5077053;28;20041;-66
2022/08/29 03:20:22;;;;;;;7.35;2.25;;;17.10;99.90;;;;;;5076852;28;20048;-66
2022/08/29 03:22:49;;;;;;;6.60;2.05;;;17.10;99.90;;;;;;5076632;28;20082;-66
2022/08/29 03:25:15;;;;;;;12.18;2.75;;;17.10;99.90;;;;;;5076815;28;20079;-66
2022/08/29 03:27:41;;;;;;;4.35;2.00;;;17.10;99.90;;;;;;5076756;28;20041;-66
2022/08/29 03:30:11;;;;;;;7.47;2.38;;;17.10;99.90;;;;;;5076644;28;20043;-66
2022/08/29 03:32:37;;;;;;;7.03;2.35;;;17.00;99.90;;;;;;5077234;28;20036;-66
2022/08/29 03:35:04;;;;;;;7.30;2.47;;;17.10;99.90;;;;;;5075566;28;20356;-66
2022/08/29 03:37:30;;;;;;;5.55;2.25;;;17.10;99.90;;;;;;5076660;28;20036;-66
2022/08/29 03:39:55;;;;;;;6.28;2.05;;;17.00;99.90;;;;;;5076443;28;20032;-66
2022/08/29 03:42:21;;;;;;;8.85;2.63;;;17.00;99.90;;;;;;5075018;28;20470;-66
2022/08/29 03:44:47;;;;;;;11.30;2.28;;;17.00;99.90;;;;;;5076414;28;20064;-66
2022/08/29 03:47:12;;;;;;;4.95;2.10;;;17.00;99.90;;;;;;5076406;28;20044;-66
2022/08/29 03:49:38;;;;;;;4.90;2.15;;;16.90;99.90;;;;;;5076355;28;20040;-66
2022/08/29 03:52:05;;;;;;;5.75;2.00;;;17.00;99.90;;;;;;5074812;28;20487;-65
2022/08/29 03:54:30;;;;;;;13.70;2.35;;;17.00;99.90;;;;;;5076230;28;20567;-66
2022/08/29 03:56:57;;;;;;;7.22;2.10;;;16.90;99.90;;;;;;5076258;28;20083;-66
2022/08/29 03:59:23;;;;;;;9.32;2.25;;;17.00;99.90;;;;;;5074473;28;20068;-66
2022/08/29 04:01:49;;;;;;;5.57;2.22;;;17.00;99.90;;;;;;5076003;28;20040;-66
2022/08/29 04:07:05;;;;;;;9.23;2.20;;;17.00;99.90;;;;;;5076115;28;20436;-66
2022/08/29 04:09:31;;;;;;;9.25;2.35;;;16.90;99.90;;;;;;5076098;28;20053;-66
2022/08/29 04:11:57;;;;;;;9.07;2.20;;;16.90;99.90;;;;;;5076014;28;20045;-66
2022/08/29 04:14:23;;;;;;;8.68;2.60;;;16.80;99.90;;;;;;5075674;28;20501;-66
2022/08/29 04:16:49;;;;;;;6.03;1.98;;;16.80;99.90;;;;;;5075922;28;20040;-66
2022/08/29 04:19:15;;;;;;;6.15;1.95;;;16.80;99.90;;;;;;5074590;28;20040;-66
2022/08/29 04:21:41;;;;;;;7.55;2.03;;;16.80;99.90;;;;;;5075642;28;20054;-66
2022/08/29 04:24:07;;;;;;;5.72;2.13;;;16.80;99.90;;;;;;5075797;28;20526;-66
2022/08/29 04:26:33;;;;;;;5.75;2.35;;;16.80;99.90;;;;;;5074313;28;20391;-65
2022/08/29 04:29:00;;;;;;;9.07;2.10;;;16.80;99.90;;;;;;5074396;28;20043;-65
2022/08/29 04:31:25;;;;;;;7.55;2.33;;;16.80;99.90;;;;;;5075616;28;20044;-66
2022/08/29 04:33:51;;;;;;;8.45;2.60;;;16.80;99.90;;;;;;5074292;28;20044;-66
2022/08/29 04:36:17;;;;;;;7.15;2.63;;;16.80;99.90;;;;;;5075411;28;20391;-66
2022/08/29 04:38:43;;;;;;;5.40;2.40;;;16.80;99.90;;;;;;5075223;28;20506;-66
2022/08/29 04:41:13;;;;;;;13.65;2.47;;;16.80;99.90;;;;;;5074979;28;20040;-66
2022/08/29 04:43:40;;;;;;;9.00;2.72;;;16.80;99.90;;;;;;5075273;28;20048;-66
2022/08/29 04:46:06;;;;;;;5.78;2.60;;;16.80;99.90;;;;;;5075300;28;20039;-66
2022/08/29 04:48:32;;;;;;;7.88;3.25;;;16.80;99.90;;;;;;5075227;28;20047;-66
2022/08/29 04:51:00;;;;;;;11.00;2.42;;;16.80;99.90;;;;;;5074010;28;20045;-66
2022/08/29 04:53:27;;;;;;;11.82;2.63;;;16.80;99.90;;;;;;5074948;28;20049;-66
2022/08/29 04:56:02;;;;;;;6.45;2.17;;;16.90;99.90;;;;;;5074459;28;20383;-66
2022/08/29 04:58:29;;;;;;;6.20;2.00;;;16.90;99.90;;;;;;5075074;28;20101;-65
2022/08/29 05:00:55;;;;;;;7.50;1.75;;;16.90;99.90;;;;;;5073582;28;20036;-66
2022/08/29 05:03:21;;;;;;;7.80;2.00;;;16.90;99.90;;;;;;5074891;28;20040;-66
2022/08/29 05:05:59;;;;;;;5.43;2.00;;;16.90;99.90;;;;;;5074950;28;20071;-65
2022/08/29 05:08:25;;;;;;;9.07;3.08;;;16.90;99.90;;;;;;5074717;28;20112;-65
2022/08/29 05:10:51;;;;;;;5.38;1.98;;;17.00;99.90;;;;;;5074772;28;20123;-66
2022/08/29 05:13:17;;;;;;;7.03;1.77;;;17.00;99.90;;;;;;5074789;28;20037;-66
2022/08/29 05:15:43;;;;;;;7.18;2.05;;;17.00;99.90;;;;;;5074670;28;20040;-66
2022/08/29 05:18:10;;;;;;;9.00;2.40;;;17.10;99.90;;;;;;5074301;28;20040;-66
2022/08/29 05:20:42;;;;;;;8.35;2.83;;;17.10;99.90;;;;;;5074560;28;20040;-66
2022/08/29 05:23:08;;;;;;;10.20;2.75;;;17.10;99.90;;;;;;5074636;28;20040;-67
2022/08/29 05:25:35;;;;;;;4.78;2.10;;;17.10;99.90;;;;;;5074510;28;20052;-67
2022/08/29 05:28:00;;;;;;;8.98;2.22;;;17.20;99.90;;;;;;5074400;28;20048;-67
2022/08/29 05:30:27;;;;;;;7.95;2.50;;;17.20;99.90;;;;;;5074417;28;20036;-67
2022/08/29 05:32:53;;;;;;;6.85;2.20;;;17.20;99.90;;;;;;5074424;28;20036;-67
2022/08/29 05:35:19;;;;;;;4.63;1.90;;;17.20;99.90;;;;;;5074307;28;20037;-67
2022/08/29 05:37:45;;;;;;;8.15;2.25;;;17.20;99.90;;;;;;5074325;28;20498;-67
2022/08/29 05:40:11;;;;;;;7.47;1.92;;;17.20;99.90;;;;;;5074109;28;20036;-67
2022/08/29 05:42:36;;;;;;;6.20;1.95;;;17.20;99.90;;;;;;5074272;28;20115;-67
2022/08/29 05:45:06;;;;;;;6.97;2.85;;;17.30;99.90;;;;;;5074162;28;20111;-67
2022/08/29 05:47:32;;;;;;;7.53;2.50;;;17.30;99.90;;;;;;5073796;28;20079;-67
2022/08/29 05:49:58;;;;;;;8.13;2.40;;;17.30;99.90;;;;;;5074186;28;20123;-67
2022/08/29 05:52:24;;;;;;;6.80;2.17;;;17.30;99.90;;;;;;5073850;28;20506;-66
2022/08/29 05:54:50;;;;;;;8.77;2.75;;;17.40;99.90;;;;;;5074074;28;20055;-67
2022/08/29 05:57:18;;;;;;;8.18;1.92;;;17.40;99.90;;;;;;5073719;28;20041;-66
2022/08/29 05:59:45;;;;;;;4.15;1.73;;;17.40;99.90;;;;;;5073775;28;20036;-67
2022/08/29 06:02:11;;;;;;;7.20;2.55;;;17.40;99.90;;;;;;5073890;28;20059;-66
2022/08/29 06:04:37;;;;;;;6.72;2.10;;;17.40;99.90;;;;;;5073067;28;20145;-67
2022/08/29 06:07:04;;;;;;;7.78;2.30;;;17.50;99.90;;;;;;5073208;28;20121;-67
2022/08/29 06:09:30;;;;;;;10.40;3.40;;;17.50;99.90;;;;;;5073809;28;20403;-66
2022/08/29 06:11:59;;;;;;;5.03;1.77;;;17.50;99.90;;;;;;5073814;28;20040;-66
2022/08/29 06:14:25;;;;;;;9.23;2.38;;;17.60;99.90;;;;;;5073890;28;20040;-66
2022/08/29 06:16:52;;;;;;;8.65;2.35;;;17.60;99.90;;;;;;5072710;28;20040;-66
2022/08/29 06:19:18;;;;;;;6.88;2.50;;;17.70;99.90;;;;;;5073722;28;20072;-66
2022/08/29 06:21:46;;;;;;;8.15;2.42;;;17.80;99.90;;;;;;5073178;28;20106;-66
2022/08/29 06:24:12;;;;;;;10.90;2.80;;;17.80;99.90;;;;;;5073693;28;20423;-66
2022/08/29 06:26:38;;;;;;;9.80;2.67;;;17.80;99.90;;;;;;5073616;28;20107;-66
2022/08/29 06:29:09;;;;;;;7.43;1.85;;;17.90;99.90;;;;;;5073600;28;20120;-66
2022/08/29 06:31:35;;;;;;;7.90;2.45;;;18.00;99.90;;;;;;5074008;28;20036;-66
2022/08/29 06:34:06;;;;;;;9.80;2.35;;;18.00;99.90;;;;;;5072316;28;20441;-66
2022/08/29 06:36:33;;;;;;;8.88;2.53;;;18.10;99.90;;;;;;5073560;28;20447;-66
2022/08/29 06:39:01;;;;;;;10.50;2.70;;;18.10;99.90;;;;;;5073576;28;20041;-66
2022/08/29 06:41:27;;;;;;;9.68;2.85;;;18.20;99.90;;;;;;5073593;28;20083;-66
2022/08/29 06:43:56;;;;;;;10.75;2.60;;;18.20;99.90;;;;;;5073536;28;20032;-66
2022/08/29 06:46:34;;;;;;;7.10;2.40;;;18.30;99.90;;;;;;5073400;28;20051;-66
2022/08/29 06:49:02;;;;;;;6.32;2.47;;;18.30;99.90;;;;;;5073445;28;20044;-66
2022/08/29 06:51:31;;;;;;;8.17;2.23;;;18.40;99.90;;;;;;5073198;28;20124;-66
2022/08/29 06:53:58;;;;;;;8.38;2.97;;;18.40;99.90;;;;;;5073095;28;20772;-66
2022/08/29 06:56:24;;;;;;;10.55;3.05;;;18.50;99.90;;;;;;5073451;28;20040;-65
2022/08/29 06:58:50;;;;;;;13.93;3.30;;;18.60;99.90;;;;;;5073271;28;20522;-65
2022/08/29 07:01:18;;;;;;;9.85;2.60;;;18.70;99.90;;;;;;5073259;28;20080;-65
2022/08/29 07:03:44;;;;;;;10.73;2.90;;;18.80;99.90;;;;;;5073325;28;20044;-65
2022/08/29 07:06:10;;;;;;;14.65;3.00;;;19.00;99.90;;;;;;5073063;28;20036;-65
2022/08/29 07:08:36;;;;;;;9.10;2.83;;;19.10;99.90;;;;;;5073263;28;20040;-65
2022/08/29 07:11:03;;;;;;;19.42;3.55;;;19.30;99.90;;;;;;5073360;28;20423;-65
2022/08/29 07:13:30;;;;;;;11.50;2.83;;;19.40;99.90;;;;;;5073239;28;20045;-66
2022/08/29 07:15:56;;;;;;;14.90;2.80;;;19.50;99.90;;;;;;5073231;28;20217;-65
2022/08/29 07:18:22;;;;;;;12.13;3.50;;;19.50;99.90;;;;;;5073439;28;20041;-65
2022/08/29 07:20:48;;;;;;;11.07;2.80;;;19.40;99.90;;;;;;5076837;28;20040;-65
2022/08/29 07:23:14;;;;;;;13.32;3.08;;;19.40;99.90;;;;;;5076868;28;20078;-66
2022/08/29 07:25:40;;;;;;;10.35;3.15;;;19.40;99.90;;;;;;5076734;28;20040;-65
2022/08/29 07:28:05;;;;;;;13.85;3.15;;;19.40;99.90;;;;;;5075745;28;20047;-65
2022/08/29 07:30:32;;;;;;;15.10;4.32;;;19.30;99.90;;;;;;5076754;28;20124;-66
2022/08/29 07:32:58;;;;;;;7.13;2.50;;;19.30;99.90;;;;;;5076648;28;20051;-66
2022/08/29 07:35:25;;;;;;;14.30;4.05;;;19.30;99.90;;;;;;5076521;28;20048;-66
2022/08/29 07:37:55;;;;;;;11.23;2.65;;;19.30;99.90;;;;;;5076346;28;20045;-66
2022/08/29 07:40:21;;;;;;;15.85;3.10;;;19.40;99.90;;;;;;5075183;28;20596;-66
2022/08/29 07:42:46;;;;;;;13.48;2.85;;;19.40;99.90;;;;;;5076481;28;20116;-65
2022/08/29 07:45:13;;;;;;;11.48;2.83;;;19.40;99.90;;;;;;5076515;28;20074;-65
2022/08/29 07:47:39;;;;;;;7.70;2.92;;;19.40;99.90;;;;;;5076320;28;20037;-65
2022/08/29 07:50:07;;;;;;;7.25;2.92;;;19.50;99.90;;;;;;5076076;28;20085;-65
2022/08/29 07:52:33;;;;;;;9.18;2.58;;;19.50;99.90;;;;;;5076163;28;20067;-65
2022/08/29 07:55:00;;;;;;;11.10;2.92;;;19.60;99.90;;;;;;5076206;28;20055;-65
2022/08/29 07:57:26;;;;;;;9.23;3.17;;;19.60;99.90;;;;;;5076444;28;20036;-65
2022/08/29 07:59:52;;;;;;;6.22;3.13;;;19.70;99.90;;;;;;5075966;28;20043;-66
2022/08/29 08:02:18;;;;;;;10.27;2.83;;;19.80;99.90;;;;;;5074987;28;20040;-65
2022/08/29 08:04:44;;;;;;;15.13;3.60;;;19.90;99.90;;;;;;5075827;28;20029;-65
2022/08/29 08:07:10;;;;;;;10.60;3.10;;;20.00;99.90;;;;;;5075964;28;20101;-65
2022/08/29 08:09:36;;;;;;;8.23;2.78;;;20.10;99.90;;;;;;5076275;28;20033;-65
2022/08/29 08:12:04;;;;;;;12.73;3.65;;;20.20;99.90;;;;;;5075980;28;20040;-65
2022/08/29 08:14:33;;;;;;;9.02;3.20;;;20.40;99.90;;;;;;5076020;28;20078;-65
2022/08/29 08:16:59;;;;;;;17.17;4.70;;;20.50;99.90;;;;;;5075860;28;20047;-65
2022/08/29 08:19:25;;;;;;;14.15;4.28;;;20.60;99.90;;;;;;5076134;28;20052;-65
2022/08/29 08:21:52;;;;;;;12.55;4.00;;;20.60;99.90;;;;;;5075706;28;20044;-65
2022/08/29 08:24:19;;;;;;;12.35;3.85;;;20.70;99.90;;;;;;5074511;28;20037;-65
2022/08/29 08:26:45;;;;;;;12.80;2.75;;;20.80;99.90;;;;;;5075480;28;20566;-65
2022/08/29 08:29:11;;;;;;;11.90;3.35;;;20.90;99.90;;;;;;5075490;28;20119;-65
2022/08/29 08:31:48;;;;;;;12.88;3.15;;;21.00;99.90;;;;;;5074624;28;20107;-65
2022/08/29 08:34:15;;;;;;;13.43;3.88;;;21.10;99.90;;;;;;5075992;28;20040;-65
2022/08/29 08:36:43;;;;;;;13.95;3.63;;;21.20;99.90;;;;;;5075345;28;20048;-64
2022/08/29 08:39:10;;;;;;;10.88;3.53;;;21.30;99.90;;;;;;5074384;28;20170;-64
2022/08/29 08:41:43;;;;;;;23.23;5.03;;;21.20;99.90;;;;;;5075311;28;20048;-64
2022/08/29 08:44:48;;;;;;;12.38;3.75;;;21.20;99.90;;;;;;5075280;28;20040;-63
2022/08/29 08:47:23;;;;;;;11.13;3.13;;;21.20;99.90;;;;;;5075326;28;20068;-64
2022/08/29 08:50:11;;;;;;;10.95;3.08;;;21.20;99.90;;;;;;5075324;28;20039;-64
2022/08/29 08:52:44;;;;;;;14.05;3.80;;;21.40;99.90;;;;;;5074968;28;20064;-65
2022/08/29 08:55:32;;;;;;;12.65;3.70;;;21.30;99.90;;;;;;5075103;28;20036;-64
2022/08/29 08:58:31;;;;;;;13.70;3.67;;;21.40;99.90;;;;;;5075287;28;20033;-65
2022/08/29 09:01:25;;;;;;;14.77;3.60;;;21.50;99.90;;;;;;5052659;28;20057;-65
2022/08/29 09:04:05;;;;;;;17.00;3.80;;;21.50;99.90;;;;;;5035572;28;20510;-64
2022/08/29 09:06:44;;;;;;;12.10;3.53;;;21.60;99.90;;;;;;5052811;28;20103;-64
2022/08/29 09:09:25;;;;;;;13.60;3.40;;;21.70;99.90;;;;;;5052662;28;20041;-64
2022/08/29 09:12:00;;;;;;;17.17;4.32;;;21.80;99.90;;;;;;5052600;28;20044;-65
2022/08/29 09:14:47;;;;;;;10.50;3.20;;;21.80;99.90;;;;;;5052506;28;20044;-66
2022/08/29 09:17:23;;;;;;;11.68;3.53;;;21.80;99.90;;;;;;5052647;28;20415;-65
2022/08/29 09:19:49;;;;;;;11.27;4.38;;;21.80;99.90;;;;;;5052470;28;20044;-65
2022/08/29 09:22:26;;;;;;;10.35;3.30;;;21.90;99.90;;;;;;5052288;28;20119;-64
2022/08/29 09:25:01;;;;;;;12.52;3.65;;;22.10;99.90;;;;;;5052284;28;20562;-65
2022/08/29 09:27:29;;;;;;;12.52;3.28;;;22.00;99.90;;;;;;5035776;28;20073;-65
2022/08/29 09:30:07;;;;;;;9.00;3.00;;;21.80;99.90;;;;;;5035750;28;20037;-65
2022/08/29 09:32:49;;;;;;;10.85;3.20;;;21.80;99.90;;;;;;5052199;28;20119;-65
2022/08/29 09:35:27;;;;;;;8.63;3.25;;;21.80;99.90;;;;;;5052299;28;20041;-66
2022/08/29 09:38:16;;;;;;;15.85;3.47;;;21.80;99.90;;;;;;5064483;28;20052;-65
2022/08/29 09:41:14;;;;;;;7.60;3.15;;;21.60;99.90;;;;;;5071314;28;20109;-65
2022/08/29 09:43:42;;;;;;;11.90;3.53;;;21.60;99.90;;;;;;5052118;28;20446;-66
2022/08/29 09:46:17;;;;;;;8.45;2.70;;;21.60;99.90;;;;;;5052011;28;20056;-65
2022/08/29 09:48:49;;;;;;;7.13;2.70;;;21.60;99.90;;;;;;5052002;28;20049;-65
2022/08/29 09:51:27;;;;;;;7.50;3.40;;;21.50;99.90;;;;;;5051889;28;20098;-65
2022/08/29 09:54:09;;;;;;;7.53;4.18;;;21.50;99.90;;;;;;5035077;28;20368;-65
2022/08/29 09:56:37;;;;;;;8.75;3.58;;;21.50;99.90;;;;;;5051902;28;20048;-65
2022/08/29 09:59:13;;;;;;;10.98;3.13;;;21.20;99.90;;;;;;5051849;28;20110;-66
2022/08/29 10:01:38;;;;;;;9.70;3.15;;;21.10;99.90;;;;;;5051835;28;20052;-65
2022/08/29 10:04:06;;;;;;;10.15;3.78;;;21.00;99.90;;;;;;5051610;28;20583;-65
2022/08/29 10:06:38;;;;;;;13.07;3.85;;;21.00;99.90;;;;;;5051469;28;20075;-66
2022/08/29 10:09:24;;;;;;;14.95;4.10;;;20.90;99.90;;;;;;5051547;28;20083;-66
2022/08/29 10:11:55;;;;;;;13.90;3.88;;;21.00;99.90;;;;;;5051551;28;20036;-66
2022/08/29 10:14:42;;;;;;;9.27;3.33;;;21.00;99.90;;;;;;5051645;28;20053;-65
2022/08/29 10:20:08;;;;;;;11.30;3.10;;;21.10;99.90;;;;;;5062635;28;20479;-65
2022/08/29 10:23:05;;;;;;;14.50;3.97;;;21.10;99.90;;;;;;5073715;28;20040;-65
2022/08/29 10:25:38;;;;;;;10.20;3.20;;;21.30;99.90;;;;;;5034794;28;20045;-65
2022/08/29 10:28:28;;;;;;;12.18;3.20;;;21.30;99.90;;;;;;5051491;28;20223;-65
2022/08/29 10:31:16;;;;;;;11.02;3.35;;;21.20;99.90;;;;;;5051466;28;20079;-65
2022/08/29 10:34:00;;;;;;;10.15;3.80;;;21.30;99.90;;;;;;5034931;28;20037;-65
2022/08/29 10:36:38;;;;;;;8.93;3.15;;;21.30;99.90;;;;;;5051439;28;20049;-65
2022/08/29 10:39:11;;;;;;;10.02;2.70;;;21.20;99.90;;;;;;5051320;28;20121;-65
2022/08/29 10:41:56;;;;;;;13.13;3.63;;;21.30;99.90;;;;;;5051105;28;20140;-65
2022/08/29 10:44:58;;;;;;;13.90;3.60;;;21.20;99.90;;;;;;5051357;28;20033;-65
2022/08/29 10:47:34;;;;;;;15.23;3.40;;;21.20;99.90;;;;;;5051122;28;20083;-65
2022/08/29 10:50:20;;;;;;;12.50;2.95;;;21.10;99.90;;;;;;5051308;28;20048;-65
2022/08/29 10:52:55;;;;;;;11.75;3.60;;;21.10;99.90;;;;;;5050913;28;20491;-65
2022/08/29 10:55:48;;;;;;;9.95;2.72;;;21.10;99.90;;;;;;5054690;28;20458;-65
2022/08/29 10:58:34;;;;;;;14.27;3.17;;;21.10;99.90;;;;;;5054862;28;20044;-66
2022/08/29 11:01:14;;;;;;;14.10;3.40;;;21.00;99.90;;;;;;5055099;28;20084;-66
2022/08/29 11:04:05;;;;;;;14.43;3.72;;;21.00;99.90;;;;;;5077281;28;20087;-65
2022/08/29 11:06:37;;;;;;;18.42;4.65;;;21.00;99.90;;;;;;5077270;28;20036;-65
2022/08/29 11:09:13;;;;;;;15.95;4.45;;;20.90;99.90;;;;;;5077198;28;20037;-65
2022/08/29 11:11:45;;;;;;;10.55;3.65;;;20.80;99.90;;;;;;5076751;28;20084;-65
2022/08/29 11:14:26;;;;;;;11.70;3.35;;;20.70;99.90;;;;;;5075865;28;20048;-65
2022/08/29 11:16:54;;;;;;;12.77;3.40;;;20.50;99.90;;;;;;5076043;28;20085;-66
2022/08/29 11:19:29;;;;;;;10.73;3.85;;;20.40;99.90;;;;;;5076964;28;20041;-65
2022/08/29 11:22:04;;;;;;;12.48;3.80;;;20.30;99.90;;;;;;5076818;28;20067;-65
2022/08/29 11:24:34;;;;;;;10.15;3.72;;;20.30;99.90;;;;;;5076761;28;20063;-65
2022/08/29 11:27:32;;;;;;;12.70;3.58;;;20.20;99.90;;;;;;5076767;28;20047;-66
2022/08/29 11:30:01;;;;;;;12.38;4.05;;;20.20;99.90;;;;;;5076570;28;20043;-65
2022/08/29 11:32:55;;;;;;;13.43;3.25;;;20.20;99.90;;;;;;5076706;28;20111;-65
2022/08/29 11:35:27;;;;;;;10.95;3.60;;;20.20;99.90;;;;;;5076605;28;20127;-65
2022/08/29 11:38:07;;;;;;;9.73;3.10;;;20.20;99.90;;;;;;5076447;28;20040;-66
2022/08/29 11:40:45;;;;;;;13.88;3.42;;;20.20;99.90;;;;;;5076478;28;20075;-65
2022/08/29 11:43:16;;;;;;;8.43;3.90;;;20.20;99.90;;;;;;5075308;28;20058;-66
2022/08/29 11:45:50;;;;;;;10.68;4.00;;;20.20;99.90;;;;;;5076296;28;20043;-65
2022/08/29 11:48:34;;;;;;;9.18;3.05;;;20.20;99.90;;;;;;5076438;28;20436;-65
2022/08/29 11:51:36;;;;;;;13.00;3.40;;;20.20;99.90;;;;;;5076512;28;20436;-65
2022/08/29 11:54:23;;;;;;;10.80;3.20;;;20.30;99.90;;;;;;5076383;28;20047;-66
2022/08/29 11:57:01;;;;;;;8.38;2.90;;;20.40;99.90;;;;;;5076369;28;20040;-65
2022/08/29 11:59:45;;;;;;;11.57;3.47;;;20.50;99.90;;;;;;5076204;28;20044;-65
2022/08/29 12:02:26;;;;;;;6.00;2.78;;;20.60;99.90;;;;;;5074855;28;20506;-66
2022/08/29 12:04:56;;;;;;;6.22;2.42;;;20.60;99.90;;;;;;5075298;28;20036;-66
2022/08/29 12:07:34;;;;;;;8.30;2.60;;;20.60;99.90;;;;;;5075844;28;20041;-66
2022/08/29 12:10:03;;;;;;;12.35;2.97;;;20.70;99.90;;;;;;5075782;28;20514;-64
2022/08/29 12:12:44;;;;;;;7.20;2.88;;;20.70;99.90;;;;;;5076015;28;20387;-65
2022/08/29 12:15:28;;;;;;;9.13;2.90;;;20.60;99.90;;;;;;5075980;28;20044;-66
2022/08/29 12:18:08;;;;;;;7.57;2.78;;;20.70;99.90;;;;;;5075960;28;20055;-65
2022/08/29 12:20:44;;;;;;;5.53;2.35;;;20.80;99.90;;;;;;5075785;28;20036;-66
2022/08/29 12:23:09;;;;;;;8.55;2.88;;;20.90;99.90;;;;;;5075893;28;20365;-66
2022/08/29 12:25:44;;;;;;;9.85;2.42;;;21.00;99.90;;;;;;5075985;28;20036;-66
2022/08/29 12:28:19;;;;;;;9.35;2.88;;;21.10;99.90;;;;;;5075795;28;20079;-66
2022/08/29 12:30:57;;;;;;;8.30;2.47;;;21.10;99.90;;;;;;5075573;28;20055;-66
2022/08/29 12:33:40;;;;;;;10.38;3.17;;;21.10;99.90;;;;;;5075590;28;20146;-66
2022/08/29 12:36:06;;;;;;;9.95;2.40;;;21.10;99.90;;;;;;5075941;28;20058;-66
2022/08/29 12:38:43;;;;;;;8.00;2.50;;;21.10;99.90;;;;;;5075552;28;20044;-65
2022/08/29 12:41:45;;;;;;;9.98;2.63;;;21.10;99.90;;;;;;5075587;28;20051;-65
2022/08/29 12:44:15;;;;;;;8.40;2.47;;;21.10;99.90;;;;;;5075364;28;20040;-65
2022/08/29 12:46:44;;;;;;;6.05;2.80;;;21.20;99.90;;;;;;5075405;28;20394;-65
2022/08/29 12:49:29;;;;;;;7.03;2.83;;;21.20;99.90;;;;;;5075286;28;20106;-66
2022/08/29 12:51:59;;;;;;;10.80;2.75;;;21.40;99.90;;;;;;5075000;28;20040;-64
2022/08/29 12:54:37;;;;;;;5.47;1.90;;;21.60;99.90;;;;;;5075135;28;20162;-64
2022/08/29 12:57:17;;;;;;;10.05;2.75;;;21.90;99.90;;;;;;5075044;28;20037;-65
2022/08/29 12:59:46;;;;;;;5.93;2.15;;;22.20;99.90;;;;;;5075171;28;20487;-64
2022/08/29 13:02:30;;;;;;;5.18;2.25;;;22.70;99.90;;;;;;5074967;28;20032;-63
2022/08/29 13:04:57;;;;;;;7.63;2.17;;;23.10;99.90;;;;;;5075021;28;20387;-65
2022/08/29 13:07:24;;;;;;;5.72;2.45;;;23.10;99.90;;;;;;5074850;28;20048;-65